sensor_id;sensor_type;location;lat;lon;timestamp;pressure;altitude;pressure_sealevel;temperature;humidity
36600;BME280;35385;55.668;37.508;2023-05-24T00:00:47;99344.63;;;16.35;100.00
36600;BME280;35385;55.668;37.508;2023-05-24T00:01:47;99345.47;;;16.35;100.00
36600;BME280;35385;55.668;37.508;2023-05-24T00:02:48;99346.31;;;16.36;100.00
36600;BME280;35385;55.668;37.508;2023-05-24T00:03:48;99345.47;;;16.35;100.00
36600;BME280;35385;55.668;37.508;2023-05-24T00:04:48;99348.19;;;16.35;100.00
36600;BME280;35385;55.668;37.508;2023-05-24T00:05:49;99344.47;;;16.36;100.00
36600;BME280;35385;55.668;37.508;2023-05-24T00:06:51;99347.84;;;16.38;100.00
36600;BME280;35385;55.668;37.508;2023-05-24T00:07:53;99346.16;;;16.37;100.00
36600;BME280;35385;55.668;37.508;2023-05-24T00:08:54;99339.25;;;16.35;100.00
36600;BME280;35385;55.668;37.508;2023-05-24T00:09:54;99342.09;;;16.33;100.00
36600;BME280;35385;55.668;37.508;2023-05-24T00:10:55;99348.19;;;16.35;100.00
36600;BME280;35385;55.668;37.508;2023-05-24T00:11:55;99346.50;;;16.34;100.00
36600;BME280;35385;55.668;37.508;2023-05-24T00:12:55;99337.72;;;16.32;100.00
36600;BME280;35385;55.668;37.508;2023-05-24T00:13:56;99344.81;;;16.33;100.00
36600;BME280;35385;55.668;37.508;2023-05-24T00:14:56;99340.09;;;16.35;100.00
36600;BME280;35385;55.668;37.508;2023-05-24T00:15:57;99333.34;;;16.31;100.00
36600;BME280;35385;55.668;37.508;2023-05-24T00:16:57;99333.34;;;16.31;100.00
36600;BME280;35385;55.668;37.508;2023-05-24T00:17:58;99341.44;;;16.31;100.00
36600;BME280;35385;55.668;37.508;2023-05-24T00:18:58;99337.91;;;16.31;100.00
36600;BME280;35385;55.668;37.508;2023-05-24T00:19:59;99332.88;;;16.27;100.00
36600;BME280;35385;55.668;37.508;2023-05-24T00:20:59;99330.34;;;16.26;100.00
36600;BME280;35385;55.668;37.508;2023-05-24T00:22:00;99327.31;;;16.21;100.00
36600;BME280;35385;55.668;37.508;2023-05-24T00:23:01;99336.41;;;16.20;100.00
36600;BME280;35385;55.668;37.508;2023-05-24T00:24:02;99330.34;;;16.18;100.00
36600;BME280;35385;55.668;37.508;2023-05-24T00:25:02;99330.34;;;16.18;100.00
36600;BME280;35385;55.668;37.508;2023-05-24T00:26:04;99325.78;;;16.18;100.00
36600;BME280;35385;55.668;37.508;2023-05-24T00:27:05;99328.31;;;16.20;100.00
36600;BME280;35385;55.668;37.508;2023-05-24T00:28:06;99325.63;;;16.20;100.00
36600;BME280;35385;55.668;37.508;2023-05-24T00:29:06;99318.56;;;16.19;100.00
36600;BME280;35385;55.668;37.508;2023-05-24T00:30:06;99322.94;;;16.20;100.00
36600;BME280;35385;55.668;37.508;2023-05-24T00:31:07;99327.31;;;16.21;100.00
36600;BME280;35385;55.668;37.508;2023-05-24T00:32:08;99327.16;;;16.22;100.00
36600;BME280;35385;55.668;37.508;2023-05-24T00:33:08;99317.38;;;16.21;100.00
36600;BME280;35385;55.668;37.508;2023-05-24T00:34:09;99320.91;;;16.22;100.00
36600;BME280;35385;55.668;37.508;2023-05-24T00:35:09;99321.75;;;16.22;100.00
36600;BME280;35385;55.668;37.508;2023-05-24T00:36:10;99317.22;;;16.23;100.00
36600;BME280;35385;55.668;37.508;2023-05-24T00:37:10;99321.41;;;16.25;100.00
36600;BME280;35385;55.668;37.508;2023-05-24T00:38:11;99317.53;;;16.28;100.00
36600;BME280;35385;55.668;37.508;2023-05-24T00:39:12;99312.84;;;16.30;100.00
36600;BME280;35385;55.668;37.508;2023-05-24T00:40:12;99317.03;;;16.24;100.00
36600;BME280;35385;55.668;37.508;2023-05-24T00:41:13;99319.22;;;16.21;100.00
36600;BME280;35385;55.668;37.508;2023-05-24T00:42:13;99309.47;;;16.20;100.00
36600;BME280;35385;55.668;37.508;2023-05-24T00:43:14;99308.09;;;16.16;100.00
36600;BME280;35385;55.668;37.508;2023-05-24T00:44:14;99307.94;;;16.17;100.00
36600;BME280;35385;55.668;37.508;2023-05-24T00:45:14;99311.31;;;16.19;100.00
36600;BME280;35385;55.668;37.508;2023-05-24T00:46:18;99306.09;;;16.18;100.00
36600;BME280;35385;55.668;37.508;2023-05-24T00:47:21;99309.28;;;16.21;100.00
36600;BME280;35385;55.668;37.508;2023-05-24T00:48:21;99301.03;;;16.23;100.00
36600;BME280;35385;55.668;37.508;2023-05-24T00:49:22;99305.09;;;16.27;100.00
36600;BME280;35385;55.668;37.508;2023-05-24T00:50:23;99294.13;;;16.29;100.00
36600;BME280;35385;55.668;37.508;2023-05-24T00:51:23;99305.56;;;16.31;100.00
36600;BME280;35385;55.668;37.508;2023-05-24T00:52:26;99302.22;;;16.29;100.00
36600;BME280;35385;55.668;37.508;2023-05-24T00:53:26;99307.78;;;16.27;100.00
36600;BME280;35385;55.668;37.508;2023-05-24T00:54:27;99307.28;;;16.23;100.00
36600;BME280;35385;55.668;37.508;2023-05-24T00:55:28;99302.72;;;16.16;100.00
36600;BME280;35385;55.668;37.508;2023-05-24T00:56:29;99308.78;;;16.18;100.00
36600;BME280;35385;55.668;37.508;2023-05-24T00:57:30;99309.63;;;16.18;100.00
36600;BME280;35385;55.668;37.508;2023-05-24T00:58:31;99305.75;;;16.21;100.00
36600;BME280;35385;55.668;37.508;2023-05-24T00:59:32;99300.41;;;16.13;100.00
36600;BME280;35385;55.668;37.508;2023-05-24T01:00:32;99303.78;;;15.99;100.00
36600;BME280;35385;55.668;37.508;2023-05-24T01:01:33;99300.22;;;15.90;100.00
36600;BME280;35385;55.668;37.508;2023-05-24T01:02:34;99305.78;;;15.80;100.00
36600;BME280;35385;55.668;37.508;2023-05-24T01:03:34;99315.22;;;15.76;100.00
36600;BME280;35385;55.668;37.508;2023-05-24T01:04:35;99303.78;;;15.82;100.00
36600;BME280;35385;55.668;37.508;2023-05-24T01:05:36;99303.09;;;15.88;100.00
36600;BME280;35385;55.668;37.508;2023-05-24T01:12:40;99298.72;;;15.96;100.00
36600;BME280;35385;55.668;37.508;2023-05-24T01:15:17;99288.28;;;15.93;100.00
36600;BME280;35385;55.668;37.508;2023-05-24T01:16:22;99296.38;;;15.93;100.00
36600;BME280;35385;55.668;37.508;2023-05-24T01:17:28;99289.63;;;15.88;100.00
36600;BME280;35385;55.668;37.508;2023-05-24T01:18:30;99295.00;;;15.88;100.00
36600;BME280;35385;55.668;37.508;2023-05-24T01:19:38;99282.56;;;15.87;100.00
36600;BME280;35385;55.668;37.508;2023-05-24T01:20:42;99287.63;;;15.82;100.00
36600;BME280;35385;55.668;37.508;2023-05-24T01:22:00;99286.28;;;15.78;100.00
36600;BME280;35385;55.668;37.508;2023-05-24T01:23:17;99287.78;;;15.73;100.00
36600;BME280;35385;55.668;37.508;2023-05-24T01:27:53;99285.59;;;15.60;100.00
36600;BME280;35385;55.668;37.508;2023-05-24T01:28:53;99291.97;;;15.59;100.00
36600;BME280;35385;55.668;37.508;2023-05-24T01:29:54;99291.66;;;15.62;100.00
36600;BME280;35385;55.668;37.508;2023-05-24T01:30:55;99288.28;;;15.60;100.00
36600;BME280;35385;55.668;37.508;2023-05-24T01:31:56;99293.00;;;15.58;100.00
36600;BME280;35385;55.668;37.508;2023-05-24T01:32:57;99285.56;;;15.52;100.00
36600;BME280;35385;55.668;37.508;2023-05-24T01:33:57;99287.56;;;15.50;100.00
36600;BME280;35385;55.668;37.508;2023-05-24T01:34:57;99290.94;;;15.52;100.00
36600;BME280;35385;55.668;37.508;2023-05-24T01:35:58;99282.56;;;15.55;100.00
36600;BME280;35385;55.668;37.508;2023-05-24T01:36:58;99296.19;;;15.62;100.00
36600;BME280;35385;55.668;37.508;2023-05-24T01:37:58;99295.03;;;15.64;100.00
36600;BME280;35385;55.668;37.508;2023-05-24T01:38:59;99283.41;;;15.64;100.00
36600;BME280;35385;55.668;37.508;2023-05-24T01:39:59;99289.31;;;15.67;100.00
36600;BME280;35385;55.668;37.508;2023-05-24T01:41:02;99285.28;;;15.71;100.00
36600;BME280;35385;55.668;37.508;2023-05-24T01:42:14;99283.75;;;15.77;100.00
36600;BME280;35385;55.668;37.508;2023-05-24T01:44:35;99285.94;;;15.81;100.00
36600;BME280;35385;55.668;37.508;2023-05-24T01:46:46;99283.41;;;15.80;100.00
36600;BME280;35385;55.668;37.508;2023-05-24T01:48:55;99283.41;;;15.64;100.00
36600;BME280;35385;55.668;37.508;2023-05-24T01:51:23;99290.16;;;15.68;100.00
36600;BME280;35385;55.668;37.508;2023-05-24T01:52:26;99285.94;;;15.73;100.00
36600;BME280;35385;55.668;37.508;2023-05-24T01:53:33;99286.09;;;15.80;100.00
36600;BME280;35385;55.668;37.508;2023-05-24T01:54:36;99292.84;;;15.84;100.00
36600;BME280;35385;55.668;37.508;2023-05-24T01:55:37;99286.09;;;15.88;100.00
36600;BME280;35385;55.668;37.508;2023-05-24T01:56:38;99285.75;;;15.91;100.00
36600;BME280;35385;55.668;37.508;2023-05-24T01:57:39;99284.91;;;15.90;100.00
36600;BME280;35385;55.668;37.508;2023-05-24T01:58:43;99280.38;;;15.91;100.00
36600;BME280;35385;55.668;37.508;2023-05-24T01:59:44;99279.34;;;15.92;100.00
36600;BME280;35385;55.668;37.508;2023-05-24T02:00:46;99277.19;;;15.96;100.00
36600;BME280;35385;55.668;37.508;2023-05-24T02:01:46;99278.84;;;15.97;100.00
36600;BME280;35385;55.668;37.508;2023-05-24T02:02:47;99278.53;;;16.00;100.00
36600;BME280;35385;55.668;37.508;2023-05-24T02:03:48;99281.53;;;16.05;100.00
36600;BME280;35385;55.668;37.508;2023-05-24T02:04:49;99281.53;;;16.05;100.00
36600;BME280;35385;55.668;37.508;2023-05-24T02:05:50;99282.38;;;16.05;100.00
36600;BME280;35385;55.668;37.508;2023-05-24T02:06:50;99279.34;;;16.08;100.00
36600;BME280;35385;55.668;37.508;2023-05-24T02:07:51;99281.53;;;16.13;100.00
36600;BME280;35385;55.668;37.508;2023-05-24T02:08:51;99268.38;;;16.18;100.00
36600;BME280;35385;55.668;37.508;2023-05-24T02:09:52;99267.88;;;16.22;100.00
36600;BME280;35385;55.668;37.508;2023-05-24T02:10:52;99271.44;;;16.15;100.00
36600;BME280;35385;55.668;37.508;2023-05-24T02:11:53;99273.28;;;16.14;100.00
36600;BME280;35385;55.668;37.508;2023-05-24T02:12:53;99275.78;;;16.16;100.00
36600;BME280;35385;55.668;37.508;2023-05-24T02:13:54;99274.13;;;16.15;100.00
36600;BME280;35385;55.668;37.508;2023-05-24T02:14:54;99267.53;;;16.17;100.00
36600;BME280;35385;55.668;37.508;2023-05-24T02:15:56;99262.97;;;16.18;100.00
36600;BME280;35385;55.668;37.508;2023-05-24T02:16:56;99271.56;;;16.21;100.00
36600;BME280;35385;55.668;37.508;2023-05-24T02:17:57;99279.47;;;16.23;100.00
36600;BME280;35385;55.668;37.508;2023-05-24T02:19:20;99279.81;;;16.20;100.00
36600;BME280;35385;55.668;37.508;2023-05-24T02:20:20;99270.22;;;16.17;100.00
36600;BME280;35385;55.668;37.508;2023-05-24T02:21:23;99278.16;;;16.11;100.00
36600;BME280;35385;55.668;37.508;2023-05-24T02:22:25;99274.28;;;16.13;100.00
36600;BME280;35385;55.668;37.508;2023-05-24T02:23:25;99277.28;;;16.18;100.00
36600;BME280;35385;55.668;37.508;2023-05-24T02:24:25;99278.97;;;16.19;100.00
36600;BME280;35385;55.668;37.508;2023-05-24T02:25:26;99266.34;;;16.20;100.00
36600;BME280;35385;55.668;37.508;2023-05-24T02:26:26;99275.44;;;16.19;100.00
36600;BME280;35385;55.668;37.508;2023-05-24T02:27:27;99271.91;;;16.18;100.00
36600;BME280;35385;55.668;37.508;2023-05-24T02:28:27;99269.03;;;16.20;100.00
36600;BME280;35385;55.668;37.508;2023-05-24T02:29:29;99270.91;;;16.19;100.00
36600;BME280;35385;55.668;37.508;2023-05-24T02:30:29;99262.63;;;16.21;100.00
36600;BME280;35385;55.668;37.508;2023-05-24T02:31:30;99261.47;;;16.23;100.00
36600;BME280;35385;55.668;37.508;2023-05-24T02:32:30;99258.44;;;16.26;100.00
36600;BME280;35385;55.668;37.508;2023-05-24T02:33:31;99255.75;;;16.26;100.00
36600;BME280;35385;55.668;37.508;2023-05-24T02:34:32;99254.22;;;16.24;100.00
36600;BME280;35385;55.668;37.508;2023-05-24T02:35:33;99262.47;;;16.22;100.00
36600;BME280;35385;55.668;37.508;2023-05-24T02:36:33;99260.97;;;16.20;100.00
36600;BME280;35385;55.668;37.508;2023-05-24T02:37:35;99264.84;;;16.17;100.00
36600;BME280;35385;55.668;37.508;2023-05-24T02:38:35;99258.94;;;16.22;100.00
36600;BME280;35385;55.668;37.508;2023-05-24T02:39:36;99262.97;;;16.18;100.00
36600;BME280;35385;55.668;37.508;2023-05-24T02:40:36;99261.81;;;16.20;100.00
36600;BME280;35385;55.668;37.508;2023-05-24T02:41:37;99268.72;;;16.23;100.00
36600;BME280;35385;55.668;37.508;2023-05-24T02:42:37;99257.59;;;16.26;100.00
36600;BME280;35385;55.668;37.508;2023-05-24T02:43:37;99259.94;;;16.21;100.00
36600;BME280;35385;55.668;37.508;2023-05-24T02:44:38;99256.56;;;16.19;100.00
36600;BME280;35385;55.668;37.508;2023-05-24T02:45:38;99259.09;;;16.20;100.00
36600;BME280;35385;55.668;37.508;2023-05-24T02:46:39;99255.91;;;16.17;100.00
36600;BME280;35385;55.668;37.508;2023-05-24T02:47:39;99254.91;;;16.18;100.00
36600;BME280;35385;55.668;37.508;2023-05-24T02:48:39;99262.81;;;16.19;100.00
36600;BME280;35385;55.668;37.508;2023-05-24T02:49:40;99265.69;;;16.18;100.00
36600;BME280;35385;55.668;37.508;2023-05-24T02:50:40;99256.56;;;16.19;100.00
36600;BME280;35385;55.668;37.508;2023-05-24T02:51:41;99254.22;;;16.16;100.00
36600;BME280;35385;55.668;37.508;2023-05-24T02:52:41;99256.09;;;16.15;100.00
36600;BME280;35385;55.668;37.508;2023-05-24T02:53:42;99251.53;;;16.16;100.00
36600;BME280;35385;55.668;37.508;2023-05-24T02:54:42;99259.44;;;16.17;100.00
36600;BME280;35385;55.668;37.508;2023-05-24T02:55:42;99260.66;;;16.15;100.00
36600;BME280;35385;55.668;37.508;2023-05-24T02:56:45;99256.91;;;16.16;100.00
36600;BME280;35385;55.668;37.508;2023-05-24T02:57:46;99252.88;;;16.20;100.00
36600;BME280;35385;55.668;37.508;2023-05-24T02:58:47;99253.72;;;16.20;100.00
36600;BME280;35385;55.668;37.508;2023-05-24T02:59:47;99252.03;;;16.19;100.00
36600;BME280;35385;55.668;37.508;2023-05-24T03:00:48;99248.66;;;16.17;100.00
36600;BME280;35385;55.668;37.508;2023-05-24T03:01:48;99250.53;;;16.17;100.00
36600;BME280;35385;55.668;37.508;2023-05-24T03:02:49;99250.34;;;16.18;100.00
36600;BME280;35385;55.668;37.508;2023-05-24T03:03:50;99256.06;;;16.23;100.00
36600;BME280;35385;55.668;37.508;2023-05-24T03:04:50;99259.28;;;16.27;100.00
36600;BME280;35385;55.668;37.508;2023-05-24T03:05:50;99256.25;;;16.30;100.00
36600;BME280;35385;55.668;37.508;2023-05-24T03:06:51;99255.19;;;16.31;100.00
36600;BME280;35385;55.668;37.508;2023-05-24T03:07:52;99259.75;;;16.31;100.00
36600;BME280;35385;55.668;37.508;2023-05-24T03:08:52;99256.88;;;16.32;100.00
36600;BME280;35385;55.668;37.508;2023-05-24T03:09:53;99262.44;;;16.31;100.00
36600;BME280;35385;55.668;37.508;2023-05-24T03:10:53;99254.84;;;16.34;100.00
36600;BME280;35385;55.668;37.508;2023-05-24T03:11:54;99251.03;;;16.29;100.00
36600;BME280;35385;55.668;37.508;2023-05-24T03:12:54;99254.22;;;16.24;100.00
36600;BME280;35385;55.668;37.508;2023-05-24T03:13:55;99252.53;;;16.23;100.00
36600;BME280;35385;55.668;37.508;2023-05-24T03:14:55;99258.25;;;16.20;100.00
36600;BME280;35385;55.668;37.508;2023-05-24T03:15:55;99255.25;;;16.15;100.00
36600;BME280;35385;55.668;37.508;2023-05-24T03:16:56;99253.56;;;16.14;100.00
36600;BME280;35385;55.668;37.508;2023-05-24T03:17:59;99256.63;;;16.11;100.00
36600;BME280;35385;55.668;37.508;2023-05-24T03:18:59;99258.97;;;16.06;100.00
36600;BME280;35385;55.668;37.508;2023-05-24T03:20:00;99255.59;;;16.04;100.00
36600;BME280;35385;55.668;37.508;2023-05-24T03:21:00;99262.50;;;16.06;100.00
36600;BME280;35385;55.668;37.508;2023-05-24T03:22:04;99254.94;;;16.10;100.00
36600;BME280;35385;55.668;37.508;2023-05-24T03:23:04;99258.59;;;16.17;100.00
36600;BME280;35385;55.668;37.508;2023-05-24T03:24:05;99249.50;;;16.18;100.00
36600;BME280;35385;55.668;37.508;2023-05-24T03:25:05;99246.47;;;16.21;100.00
36600;BME280;35385;55.668;37.508;2023-05-24T03:26:07;99248.84;;;16.24;100.00
36600;BME280;35385;55.668;37.508;2023-05-24T03:27:08;99253.53;;;16.30;100.00
36600;BME280;35385;55.668;37.508;2023-05-24T03:28:08;99251.50;;;16.32;100.00
36600;BME280;35385;55.668;37.508;2023-05-24T03:29:09;99245.25;;;16.32;100.00
36600;BME280;35385;55.668;37.508;2023-05-24T03:30:10;99253.50;;;16.38;100.00
36600;BME280;35385;55.668;37.508;2023-05-24T03:31:10;99244.53;;;16.54;100.00
36600;BME280;35385;55.668;37.508;2023-05-24T03:32:11;99249.88;;;16.62;100.00
36600;BME280;35385;55.668;37.508;2023-05-24T03:33:11;99246.84;;;16.65;100.00
36600;BME280;35385;55.668;37.508;2023-05-24T03:34:12;99255.44;;;16.69;100.00
36600;BME280;35385;55.668;37.508;2023-05-24T03:35:12;99244.66;;;16.60;100.00
36600;BME280;35385;55.668;37.508;2023-05-24T03:36:12;99243.16;;;16.66;100.00
36600;BME280;35385;55.668;37.508;2023-05-24T03:37:13;99245.31;;;16.71;100.00
36600;BME280;35385;55.668;37.508;2023-05-24T03:38:13;99234.88;;;16.59;100.00
36600;BME280;35385;55.668;37.508;2023-05-24T03:39:14;99237.56;;;16.59;100.00
36600;BME280;35385;55.668;37.508;2023-05-24T03:40:14;99236.91;;;16.66;100.00
36600;BME280;35385;55.668;37.508;2023-05-24T03:41:14;99234.88;;;16.68;100.00
36600;BME280;35385;55.668;37.508;2023-05-24T03:42:15;99234.03;;;16.67;100.00
36600;BME280;35385;55.668;37.508;2023-05-24T03:43:15;99228.66;;;16.67;100.00
36600;BME280;35385;55.668;37.508;2023-05-24T03:44:16;99233.69;;;16.62;100.00
36600;BME280;35385;55.668;37.508;2023-05-24T03:45:17;99240.94;;;16.61;100.00
36600;BME280;35385;55.668;37.508;2023-05-24T03:46:22;99242.16;;;16.59;100.00
36600;BME280;35385;55.668;37.508;2023-05-24T03:47:22;99235.25;;;16.56;100.00
36600;BME280;35385;55.668;37.508;2023-05-24T03:48:22;99239.97;;;16.54;100.00
36600;BME280;35385;55.668;37.508;2023-05-24T03:49:23;99233.22;;;16.58;100.00
36600;BME280;35385;55.668;37.508;2023-05-24T03:50:23;99232.19;;;16.59;100.00
36600;BME280;35385;55.668;37.508;2023-05-24T03:51:23;99225.13;;;16.58;100.00
36600;BME280;35385;55.668;37.508;2023-05-24T03:52:28;99236.25;;;16.55;100.00
36600;BME280;35385;55.668;37.508;2023-05-24T03:53:28;99228.69;;;16.51;100.00
36600;BME280;35385;55.668;37.508;2023-05-24T03:54:29;99226.16;;;16.49;100.00
36600;BME280;35385;55.668;37.508;2023-05-24T03:55:29;99222.47;;;16.50;100.00
36600;BME280;35385;55.668;37.508;2023-05-24T03:56:30;99227.53;;;16.45;100.00
36600;BME280;35385;55.668;37.508;2023-05-24T03:57:30;99222.50;;;16.42;100.00
36600;BME280;35385;55.668;37.508;2023-05-24T03:58:31;99224.69;;;16.39;100.00
36600;BME280;35385;55.668;37.508;2023-05-24T03:59:31;99223.50;;;16.41;100.00
36600;BME280;35385;55.668;37.508;2023-05-24T04:00:31;99223.19;;;16.44;100.00
36600;BME280;35385;55.668;37.508;2023-05-24T04:01:32;99222.50;;;16.42;100.00
36600;BME280;35385;55.668;37.508;2023-05-24T04:02:32;99227.22;;;16.40;100.00
36600;BME280;35385;55.668;37.508;2023-05-24T04:03:33;99227.56;;;16.37;100.00
36600;BME280;35385;55.668;37.508;2023-05-24T04:04:33;99229.06;;;16.40;100.00
36600;BME280;35385;55.668;37.508;2023-05-24T04:05:33;99226.56;;;16.38;100.00
36600;BME280;35385;55.668;37.508;2023-05-24T04:06:34;99225.72;;;16.38;100.00
36600;BME280;35385;55.668;37.508;2023-05-24T04:07:36;99224.19;;;16.35;100.00
36600;BME280;35385;55.668;37.508;2023-05-24T04:08:36;99225.38;;;16.33;100.00
36600;BME280;35385;55.668;37.508;2023-05-24T04:09:36;99234.69;;;16.30;100.00
36600;BME280;35385;55.668;37.508;2023-05-24T04:10:46;99218.31;;;16.32;100.00
36600;BME280;35385;55.668;37.508;2023-05-24T04:11:46;99227.06;;;16.34;100.00
36600;BME280;35385;55.668;37.508;2023-05-24T04:12:47;99238.69;;;16.34;100.00
36600;BME280;35385;55.668;37.508;2023-05-24T04:13:47;99231.09;;;16.38;100.00
36600;BME280;35385;55.668;37.508;2023-05-24T04:14:48;99219.13;;;16.40;100.00
36600;BME280;35385;55.668;37.508;2023-05-24T04:15:48;99221.28;;;16.45;100.00
36600;BME280;35385;55.668;37.508;2023-05-24T04:16:49;99226.16;;;16.49;100.00
36600;BME280;35385;55.668;37.508;2023-05-24T04:17:50;99225.50;;;16.47;100.00
36600;BME280;35385;55.668;37.508;2023-05-24T04:18:56;99226.50;;;16.46;100.00
36600;BME280;35385;55.668;37.508;2023-05-24T04:19:56;99222.63;;;16.49;100.00
36600;BME280;35385;55.668;37.508;2023-05-24T04:20:57;99225.81;;;16.52;100.00
36600;BME280;35385;55.668;37.508;2023-05-24T04:21:57;99224.94;;;16.60;100.00
36600;BME280;35385;55.668;37.508;2023-05-24T04:22:58;99224.44;;;16.65;100.00
36600;BME280;35385;55.668;37.508;2023-05-24T04:23:58;99224.44;;;16.65;100.00
36600;BME280;35385;55.668;37.508;2023-05-24T04:25:04;99231.19;;;16.69;100.00
36600;BME280;35385;55.668;37.508;2023-05-24T04:26:04;99225.38;;;16.80;100.00
36600;BME280;35385;55.668;37.508;2023-05-24T04:27:05;99228.56;;;16.83;100.00
36600;BME280;35385;55.668;37.508;2023-05-24T04:28:06;99227.66;;;16.91;100.00
36600;BME280;35385;55.668;37.508;2023-05-24T04:29:07;99227.63;;;16.99;100.00
36600;BME280;35385;55.668;37.508;2023-05-24T04:30:07;99217.81;;;17.06;100.00
36600;BME280;35385;55.668;37.508;2023-05-24T04:31:09;99221.34;;;17.07;100.00
36600;BME280;35385;55.668;37.508;2023-05-24T04:32:10;99222.66;;;17.11;100.00
36600;BME280;35385;55.668;37.508;2023-05-24T04:33:13;99226.81;;;17.21;100.00
36600;BME280;35385;55.668;37.508;2023-05-24T04:34:14;99217.69;;;17.22;100.00
36600;BME280;35385;55.668;37.508;2023-05-24T04:35:14;99228.50;;;17.22;100.00
36600;BME280;35385;55.668;37.508;2023-05-24T04:36:15;99220.06;;;17.17;100.00
36600;BME280;35385;55.668;37.508;2023-05-24T04:37:16;99224.78;;;17.23;100.00
36600;BME280;35385;55.668;37.508;2023-05-24T04:38:17;99218.59;;;17.38;100.00
36600;BME280;35385;55.668;37.508;2023-05-24T04:39:18;99215.06;;;17.60;100.00
36600;BME280;35385;55.668;37.508;2023-05-24T04:40:21;99218.22;;;18.01;100.00
36600;BME280;35385;55.668;37.508;2023-05-24T04:41:21;99222.22;;;18.49;100.00
36600;BME280;35385;55.668;37.508;2023-05-24T04:42:23;99214.38;;;18.84;100.00
36600;BME280;35385;55.668;37.508;2023-05-24T04:43:24;99213.88;;;18.95;100.00
36600;BME280;35385;55.668;37.508;2023-05-24T04:44:25;99214.66;;;19.10;100.00
36600;BME280;35385;55.668;37.508;2023-05-24T04:45:26;99210.31;;;18.94;100.00
36600;BME280;35385;55.668;37.508;2023-05-24T04:46:26;99202.38;;;18.71;100.00
36600;BME280;35385;55.668;37.508;2023-05-24T04:47:27;99210.38;;;18.80;100.00
36600;BME280;35385;55.668;37.508;2023-05-24T04:48:27;99213.91;;;19.16;100.00
36600;BME280;35385;55.668;37.508;2023-05-24T04:49:28;99209.22;;;19.46;100.00
36600;BME280;35385;55.668;37.508;2023-05-24T04:50:28;99211.34;;;19.51;100.00
36600;BME280;35385;55.668;37.508;2023-05-24T04:51:29;99211.19;;;19.80;100.00
36600;BME280;35385;55.668;37.508;2023-05-24T04:52:29;99204.91;;;20.07;100.00
36600;BME280;35385;55.668;37.508;2023-05-24T04:53:30;99208.97;;;20.18;100.00
36600;BME280;35385;55.668;37.508;2023-05-24T04:54:32;99207.72;;;20.21;100.00
36600;BME280;35385;55.668;37.508;2023-05-24T04:55:32;99205.00;;;20.21;100.00
36600;BME280;35385;55.668;37.508;2023-05-24T04:56:36;99214.16;;;19.85;100.00
36600;BME280;35385;55.668;37.508;2023-05-24T04:57:37;99203.97;;;20.22;100.00
36600;BME280;35385;55.668;37.508;2023-05-24T04:58:37;99207.97;;;20.60;100.00
36600;BME280;35385;55.668;37.508;2023-05-24T04:59:38;99212.06;;;20.50;100.00
36600;BME280;35385;55.668;37.508;2023-05-24T05:00:39;99211.22;;;20.42;100.00
36600;BME280;35385;55.668;37.508;2023-05-24T05:01:39;99215.63;;;20.16;100.00
36600;BME280;35385;55.668;37.508;2023-05-24T05:02:39;99214.41;;;19.90;100.00
36600;BME280;35385;55.668;37.508;2023-05-24T05:03:40;99215.34;;;19.76;100.00
36600;BME280;35385;55.668;37.508;2023-05-24T05:04:40;99212.47;;;19.84;100.00
36600;BME280;35385;55.668;37.508;2023-05-24T05:05:41;99226.50;;;19.94;100.00
36600;BME280;35385;55.668;37.508;2023-05-24T05:06:42;99221.38;;;20.06;100.00
36600;BME280;35385;55.668;37.508;2023-05-24T05:07:43;99222.63;;;20.03;100.00
36600;BME280;35385;55.668;37.508;2023-05-24T05:08:44;99223.22;;;19.99;100.00
36600;BME280;35385;55.668;37.508;2023-05-24T05:09:44;99223.31;;;19.84;100.00
36600;BME280;35385;55.668;37.508;2023-05-24T05:10:45;99226.56;;;19.73;100.00
36600;BME280;35385;55.668;37.508;2023-05-24T05:11:45;99232.63;;;19.75;100.00
36600;BME280;35385;55.668;37.508;2023-05-24T05:12:46;99236.47;;;19.87;100.00
36600;BME280;35385;55.668;37.508;2023-05-24T05:13:46;99240.50;;;19.98;100.00
36600;BME280;35385;55.668;37.508;2023-05-24T05:14:46;99236.78;;;20.05;100.00
36600;BME280;35385;55.668;37.508;2023-05-24T05:15:47;99235.63;;;20.15;100.00
36600;BME280;35385;55.668;37.508;2023-05-24T05:16:47;99236.91;;;20.19;100.00
36600;BME280;35385;55.668;37.508;2023-05-24T05:17:47;99239.72;;;20.04;100.00
36600;BME280;35385;55.668;37.508;2023-05-24T05:18:48;99234.34;;;20.10;100.00
36600;BME280;35385;55.668;37.508;2023-05-24T05:19:48;99235.28;;;19.96;100.00
36600;BME280;35385;55.668;37.508;2023-05-24T05:20:49;99231.19;;;19.79;100.00
36600;BME280;35385;55.668;37.508;2023-05-24T05:21:49;99225.72;;;19.72;100.00
36600;BME280;35385;55.668;37.508;2023-05-24T05:22:50;99234.50;;;19.74;100.00
36600;BME280;35385;55.668;37.508;2023-05-24T05:23:50;99225.66;;;19.66;100.00
36600;BME280;35385;55.668;37.508;2023-05-24T05:24:50;99231.78;;;19.53;100.00
36600;BME280;35385;55.668;37.508;2023-05-24T05:25:51;99233.13;;;19.64;100.00
36600;BME280;35385;55.668;37.508;2023-05-24T05:26:51;99235.06;;;19.70;100.00
36600;BME280;35385;55.668;37.508;2023-05-24T05:27:52;99235.19;;;19.83;100.00
36600;BME280;35385;55.668;37.508;2023-05-24T05:28:52;99236.38;;;20.02;100.00
36600;BME280;35385;55.668;37.508;2023-05-24T05:29:53;99237.91;;;20.11;100.00
36600;BME280;35385;55.668;37.508;2023-05-24T05:30:54;99239.38;;;20.13;100.00
36600;BME280;35385;55.668;37.508;2023-05-24T05:31:55;99235.16;;;20.04;100.00